sensor_id;sensor_type;location;lat;lon;timestamp;P1;durP1;ratioP1;P2;durP2;ratioP2
146;SDS011;45999;48.808;9.182;2023-02-28T00:01:03;2.00;;;1.80;;
146;SDS011;45999;48.808;9.182;2023-02-28T00:03:30;3.33;;;1.93;;
146;SDS011;45999;48.808;9.182;2023-02-28T00:05:59;3.07;;;1.87;;
146;SDS011;45999;48.808;9.182;2023-02-28T00:08:27;3.07;;;1.90;;
146;SDS011;45999;48.808;9.182;2023-02-28T00:10:53;2.30;;;1.97;;
146;SDS011;45999;48.808;9.182;2023-02-28T00:13:19;2.30;;;1.50;;
146;SDS011;45999;48.808;9.182;2023-02-28T00:15:46;2.27;;;1.80;;
146;SDS011;45999;48.808;9.182;2023-02-28T00:18:12;2.53;;;1.53;;
146;SDS011;45999;48.808;9.182;2023-02-28T00:20:39;4.23;;;1.90;;
146;SDS011;45999;48.808;9.182;2023-02-28T00:23:05;1.93;;;1.80;;
146;SDS011;45999;48.808;9.182;2023-02-28T00:25:31;1.93;;;1.73;;
146;SDS011;45999;48.808;9.182;2023-02-28T00:27:58;3.30;;;2.20;;
146;SDS011;45999;48.808;9.182;2023-02-28T00:30:24;2.87;;;1.93;;
146;SDS011;45999;48.808;9.182;2023-02-28T00:32:50;1.80;;;1.60;;
146;SDS011;45999;48.808;9.182;2023-02-28T00:35:17;2.00;;;1.57;;
146;SDS011;45999;48.808;9.182;2023-02-28T00:37:43;2.47;;;1.70;;
146;SDS011;45999;48.808;9.182;2023-02-28T00:40:10;3.10;;;1.63;;
146;SDS011;45999;48.808;9.182;2023-02-28T00:42:37;1.93;;;1.80;;
146;SDS011;45999;48.808;9.182;2023-02-28T00:45:03;2.00;;;1.77;;
146;SDS011;45999;48.808;9.182;2023-02-28T00:47:31;3.27;;;1.77;;
146;SDS011;45999;48.808;9.182;2023-02-28T00:49:57;2.33;;;1.70;;
146;SDS011;45999;48.808;9.182;2023-02-28T00:52:24;2.30;;;1.87;;
146;SDS011;45999;48.808;9.182;2023-02-28T00:54:51;2.40;;;2.00;;
146;SDS011;45999;48.808;9.182;2023-02-28T00:57:17;2.83;;;1.80;;
146;SDS011;45999;48.808;9.182;2023-02-28T00:59:43;3.07;;;2.10;;
146;SDS011;45999;48.808;9.182;2023-02-28T01:02:10;3.30;;;2.10;;
146;SDS011;45999;48.808;9.182;2023-02-28T01:04:36;2.10;;;1.90;;
146;SDS011;45999;48.808;9.182;2023-02-28T01:07:02;3.70;;;1.83;;
146;SDS011;45999;48.808;9.182;2023-02-28T01:09:29;2.37;;;2.10;;
146;SDS011;45999;48.808;9.182;2023-02-28T01:11:55;3.20;;;2.00;;
146;SDS011;45999;48.808;9.182;2023-02-28T01:14:22;3.33;;;2.27;;
146;SDS011;45999;48.808;9.182;2023-02-28T01:16:48;2.93;;;2.40;;
146;SDS011;45999;48.808;9.182;2023-02-28T01:19:15;2.07;;;1.83;;
146;SDS011;45999;48.808;9.182;2023-02-28T01:21:41;3.30;;;2.10;;
146;SDS011;45999;48.808;9.182;2023-02-28T01:24:08;3.20;;;2.00;;
146;SDS011;45999;48.808;9.182;2023-02-28T01:26:34;3.90;;;2.23;;
146;SDS011;45999;48.808;9.182;2023-02-28T01:29:01;2.03;;;1.83;;
146;SDS011;45999;48.808;9.182;2023-02-28T01:31:28;2.70;;;2.27;;
146;SDS011;45999;48.808;9.182;2023-02-28T01:33:54;3.17;;;2.10;;
146;SDS011;45999;48.808;9.182;2023-02-28T01:36:22;2.20;;;1.97;;
146;SDS011;45999;48.808;9.182;2023-02-28T01:38:50;3.23;;;2.27;;
146;SDS011;45999;48.808;9.182;2023-02-28T01:41:20;2.60;;;2.10;;
146;SDS011;45999;48.808;9.182;2023-02-28T01:46:15;2.40;;;1.87;;
146;SDS011;45999;48.808;9.182;2023-02-28T01:48:52;4.80;;;2.27;;
146;SDS011;45999;48.808;9.182;2023-02-28T01:51:29;2.53;;;2.30;;
146;SDS011;45999;48.808;9.182;2023-02-28T01:54:05;2.67;;;2.03;;
146;SDS011;45999;48.808;9.182;2023-02-28T01:56:38;3.80;;;2.57;;
146;SDS011;45999;48.808;9.182;2023-02-28T01:59:10;2.60;;;2.20;;
146;SDS011;45999;48.808;9.182;2023-02-28T02:01:39;2.37;;;2.17;;
146;SDS011;45999;48.808;9.182;2023-02-28T02:04:05;3.03;;;2.10;;
146;SDS011;45999;48.808;9.182;2023-02-28T02:06:37;3.63;;;2.33;;
146;SDS011;45999;48.808;9.182;2023-02-28T02:09:06;5.37;;;2.47;;
146;SDS011;45999;48.808;9.182;2023-02-28T02:11:33;4.13;;;2.50;;
146;SDS011;45999;48.808;9.182;2023-02-28T02:17:14;2.87;;;2.57;;
146;SDS011;45999;48.808;9.182;2023-02-28T02:20:02;4.43;;;2.43;;
146;SDS011;45999;48.808;9.182;2023-02-28T02:23:02;3.50;;;2.80;;
146;SDS011;45999;48.808;9.182;2023-02-28T02:25:45;3.60;;;2.83;;
146;SDS011;45999;48.808;9.182;2023-02-28T02:36:46;3.33;;;2.67;;
146;SDS011;45999;48.808;9.182;2023-02-28T02:39:38;4.47;;;2.30;;
146;SDS011;45999;48.808;9.182;2023-02-28T02:42:18;4.67;;;2.63;;
146;SDS011;45999;48.808;9.182;2023-02-28T02:44:55;5.10;;;2.90;;
146;SDS011;45999;48.808;9.182;2023-02-28T02:47:27;7.93;;;2.83;;
146;SDS011;45999;48.808;9.182;2023-02-28T02:49:57;3.10;;;2.57;;
146;SDS011;45999;48.808;9.182;2023-02-28T02:52:29;3.07;;;2.77;;
146;SDS011;45999;48.808;9.182;2023-02-28T02:55:05;3.10;;;2.80;;
146;SDS011;45999;48.808;9.182;2023-02-28T02:57:37;2.97;;;2.40;;
146;SDS011;45999;48.808;9.182;2023-02-28T03:00:11;3.90;;;2.90;;
146;SDS011;45999;48.808;9.182;2023-02-28T03:02:40;3.07;;;2.60;;
146;SDS011;45999;48.808;9.182;2023-02-28T03:05:08;4.33;;;3.10;;
146;SDS011;45999;48.808;9.182;2023-02-28T03:07:43;5.93;;;3.23;;
146;SDS011;45999;48.808;9.182;2023-02-28T03:10:28;4.80;;;2.77;;
146;SDS011;45999;48.808;9.182;2023-02-28T03:18:30;3.83;;;3.00;;
146;SDS011;45999;48.808;9.182;2023-02-28T03:24:19;4.30;;;3.30;;
146;SDS011;45999;48.808;9.182;2023-02-28T03:27:07;3.93;;;2.97;;
146;SDS011;45999;48.808;9.182;2023-02-28T03:29:43;3.73;;;3.30;;
146;SDS011;45999;48.808;9.182;2023-02-28T03:32:18;3.53;;;3.17;;
146;SDS011;45999;48.808;9.182;2023-02-28T03:34:54;4.03;;;3.20;;
146;SDS011;45999;48.808;9.182;2023-02-28T03:37:28;5.83;;;3.57;;
146;SDS011;45999;48.808;9.182;2023-02-28T03:40:00;4.40;;;3.50;;
146;SDS011;45999;48.808;9.182;2023-02-28T03:42:33;4.47;;;3.10;;
146;SDS011;45999;48.808;9.182;2023-02-28T03:45:04;5.80;;;3.63;;
146;SDS011;45999;48.808;9.182;2023-02-28T03:50:24;4.17;;;3.43;;
146;SDS011;45999;48.808;9.182;2023-02-28T03:52:55;4.17;;;3.20;;
146;SDS011;45999;48.808;9.182;2023-02-28T03:55:45;5.13;;;3.60;;
146;SDS011;45999;48.808;9.182;2023-02-28T03:58:16;6.77;;;3.73;;
146;SDS011;45999;48.808;9.182;2023-02-28T04:00:46;4.50;;;3.73;;
146;SDS011;45999;48.808;9.182;2023-02-28T04:03:18;6.13;;;3.80;;
146;SDS011;45999;48.808;9.182;2023-02-28T04:05:54;6.13;;;4.00;;
146;SDS011;45999;48.808;9.182;2023-02-28T04:08:22;3.93;;;3.53;;
146;SDS011;45999;48.808;9.182;2023-02-28T04:10:56;6.27;;;3.60;;
146;SDS011;45999;48.808;9.182;2023-02-28T04:13:40;4.13;;;3.00;;
146;SDS011;45999;48.808;9.182;2023-02-28T04:16:08;5.07;;;3.40;;
146;SDS011;45999;48.808;9.182;2023-02-28T04:18:37;4.03;;;3.63;;
146;SDS011;45999;48.808;9.182;2023-02-28T04:21:04;5.57;;;3.47;;
146;SDS011;45999;48.808;9.182;2023-02-28T04:23:31;5.77;;;3.57;;
146;SDS011;45999;48.808;9.182;2023-02-28T04:25:58;4.60;;;3.60;;
146;SDS011;45999;48.808;9.182;2023-02-28T04:28:24;5.10;;;3.97;;
146;SDS011;45999;48.808;9.182;2023-02-28T04:30:55;4.87;;;3.27;;
146;SDS011;45999;48.808;9.182;2023-02-28T04:33:26;4.80;;;3.63;;
146;SDS011;45999;48.808;9.182;2023-02-28T04:36:02;4.73;;;3.50;;
146;SDS011;45999;48.808;9.182;2023-02-28T04:38:32;4.87;;;3.03;;
146;SDS011;45999;48.808;9.182;2023-02-28T04:41:00;5.13;;;4.17;;
146;SDS011;45999;48.808;9.182;2023-02-28T04:43:27;5.90;;;3.60;;
146;SDS011;45999;48.808;9.182;2023-02-28T04:45:54;5.10;;;3.77;;
146;SDS011;45999;48.808;9.182;2023-02-28T04:48:23;4.90;;;3.53;;
146;SDS011;45999;48.808;9.182;2023-02-28T04:50:59;4.53;;;3.10;;
146;SDS011;45999;48.808;9.182;2023-02-28T04:53:27;5.00;;;3.63;;
146;SDS011;45999;48.808;9.182;2023-02-28T04:55:54;3.37;;;3.07;;
146;SDS011;45999;48.808;9.182;2023-02-28T04:58:22;6.57;;;3.87;;
146;SDS011;45999;48.808;9.182;2023-02-28T05:00:49;5.40;;;3.90;;
146;SDS011;45999;48.808;9.182;2023-02-28T05:03:15;4.23;;;3.40;;
146;SDS011;45999;48.808;9.182;2023-02-28T05:05:42;3.80;;;3.07;;
146;SDS011;45999;48.808;9.182;2023-02-28T05:08:08;3.77;;;3.13;;
146;SDS011;45999;48.808;9.182;2023-02-28T05:10:35;5.03;;;3.53;;
146;SDS011;45999;48.808;9.182;2023-02-28T05:13:02;4.70;;;3.80;;
146;SDS011;45999;48.808;9.182;2023-02-28T05:15:29;5.77;;;4.23;;
146;SDS011;45999;48.808;9.182;2023-02-28T05:17:55;5.70;;;3.90;;
146;SDS011;45999;48.808;9.182;2023-02-28T05:20:22;5.33;;;3.80;;
146;SDS011;45999;48.808;9.182;2023-02-28T05:22:49;4.47;;;3.70;;
146;SDS011;45999;48.808;9.182;2023-02-28T05:25:16;7.53;;;3.90;;
146;SDS011;45999;48.808;9.182;2023-02-28T05:27:46;4.40;;;4.00;;
146;SDS011;45999;48.808;9.182;2023-02-28T05:30:13;6.53;;;3.93;;
146;SDS011;45999;48.808;9.182;2023-02-28T05:32:40;4.53;;;4.00;;
146;SDS011;45999;48.808;9.182;2023-02-28T05:35:08;5.97;;;4.00;;
146;SDS011;45999;48.808;9.182;2023-02-28T05:37:35;7.33;;;4.43;;
146;SDS011;45999;48.808;9.182;2023-02-28T05:40:02;5.37;;;3.93;;
146;SDS011;45999;48.808;9.182;2023-02-28T05:42:31;5.87;;;4.17;;
146;SDS011;45999;48.808;9.182;2023-02-28T05:44:57;4.40;;;3.97;;
146;SDS011;45999;48.808;9.182;2023-02-28T05:47:24;6.57;;;3.97;;
146;SDS011;45999;48.808;9.182;2023-02-28T05:49:50;5.70;;;4.13;;
146;SDS011;45999;48.808;9.182;2023-02-28T05:52:16;5.17;;;3.67;;
146;SDS011;45999;48.808;9.182;2023-02-28T05:54:43;5.17;;;4.67;;
146;SDS011;45999;48.808;9.182;2023-02-28T05:57:09;4.50;;;4.00;;
146;SDS011;45999;48.808;9.182;2023-02-28T05:59:36;4.33;;;3.93;;
146;SDS011;45999;48.808;9.182;2023-02-28T06:02:04;8.80;;;4.77;;
146;SDS011;45999;48.808;9.182;2023-02-28T06:04:31;6.13;;;4.13;;
146;SDS011;45999;48.808;9.182;2023-02-28T06:06:58;6.10;;;4.30;;
146;SDS011;45999;48.808;9.182;2023-02-28T06:09:24;5.97;;;4.60;;
146;SDS011;45999;48.808;9.182;2023-02-28T06:11:51;7.60;;;4.13;;
146;SDS011;45999;48.808;9.182;2023-02-28T06:14:18;7.27;;;4.47;;
146;SDS011;45999;48.808;9.182;2023-02-28T06:16:45;5.13;;;4.20;;
146;SDS011;45999;48.808;9.182;2023-02-28T06:19:12;5.57;;;4.47;;
146;SDS011;45999;48.808;9.182;2023-02-28T06:21:39;6.50;;;4.50;;
146;SDS011;45999;48.808;9.182;2023-02-28T06:24:06;5.07;;;3.90;;
146;SDS011;45999;48.808;9.182;2023-02-28T06:26:33;5.83;;;4.17;;
146;SDS011;45999;48.808;9.182;2023-02-28T06:29:00;6.97;;;4.73;;
146;SDS011;45999;48.808;9.182;2023-02-28T06:31:26;6.27;;;4.63;;
146;SDS011;45999;48.808;9.182;2023-02-28T06:33:54;5.70;;;4.57;;
146;SDS011;45999;48.808;9.182;2023-02-28T06:36:21;5.07;;;4.47;;
146;SDS011;45999;48.808;9.182;2023-02-28T06:38:48;9.90;;;4.83;;
146;SDS011;45999;48.808;9.182;2023-02-28T06:41:19;7.03;;;4.77;;
146;SDS011;45999;48.808;9.182;2023-02-28T06:43:47;4.80;;;4.30;;
146;SDS011;45999;48.808;9.182;2023-02-28T06:46:13;5.23;;;4.40;;
146;SDS011;45999;48.808;9.182;2023-02-28T06:48:40;5.37;;;4.43;;
146;SDS011;45999;48.808;9.182;2023-02-28T06:51:11;5.40;;;4.10;;
146;SDS011;45999;48.808;9.182;2023-02-28T06:53:39;5.67;;;4.50;;
146;SDS011;45999;48.808;9.182;2023-02-28T06:56:06;6.47;;;4.93;;
146;SDS011;45999;48.808;9.182;2023-02-28T06:58:35;5.17;;;3.63;;
146;SDS011;45999;48.808;9.182;2023-02-28T07:01:02;5.60;;;4.80;;
146;SDS011;45999;48.808;9.182;2023-02-28T07:03:29;6.70;;;4.83;;
146;SDS011;45999;48.808;9.182;2023-02-28T07:05:56;7.43;;;4.90;;
146;SDS011;45999;48.808;9.182;2023-02-28T07:08:25;5.67;;;4.67;;
146;SDS011;45999;48.808;9.182;2023-02-28T07:10:53;6.17;;;4.73;;
146;SDS011;45999;48.808;9.182;2023-02-28T07:13:20;5.97;;;4.47;;
146;SDS011;45999;48.808;9.182;2023-02-28T07:15:57;7.13;;;5.33;;
146;SDS011;45999;48.808;9.182;2023-02-28T07:18:25;5.57;;;4.30;;
146;SDS011;45999;48.808;9.182;2023-02-28T07:20:52;8.60;;;5.27;;
146;SDS011;45999;48.808;9.182;2023-02-28T07:23:19;6.47;;;5.27;;
146;SDS011;45999;48.808;9.182;2023-02-28T07:25:46;5.70;;;5.03;;
146;SDS011;45999;48.808;9.182;2023-02-28T07:28:13;6.20;;;4.90;;
146;SDS011;45999;48.808;9.182;2023-02-28T07:30:40;5.93;;;4.97;;
146;SDS011;45999;48.808;9.182;2023-02-28T07:33:06;7.93;;;6.10;;
146;SDS011;45999;48.808;9.182;2023-02-28T07:35:33;7.80;;;5.33;;
146;SDS011;45999;48.808;9.182;2023-02-28T07:38:00;7.00;;;5.00;;
146;SDS011;45999;48.808;9.182;2023-02-28T07:40:27;6.17;;;4.90;;
146;SDS011;45999;48.808;9.182;2023-02-28T07:42:54;5.83;;;5.03;;
146;SDS011;45999;48.808;9.182;2023-02-28T07:45:20;8.00;;;5.50;;
146;SDS011;45999;48.808;9.182;2023-02-28T07:47:47;6.80;;;5.30;;
146;SDS011;45999;48.808;9.182;2023-02-28T07:50:14;7.00;;;4.87;;
146;SDS011;45999;48.808;9.182;2023-02-28T07:52:41;8.27;;;5.13;;
146;SDS011;45999;48.808;9.182;2023-02-28T07:55:09;9.43;;;5.30;;
146;SDS011;45999;48.808;9.182;2023-02-28T07:57:36;6.10;;;4.80;;
146;SDS011;45999;48.808;9.182;2023-02-28T08:00:04;6.97;;;5.27;;
146;SDS011;45999;48.808;9.182;2023-02-28T08:02:32;7.77;;;5.20;;
146;SDS011;45999;48.808;9.182;2023-02-28T08:04:59;5.53;;;4.87;;
146;SDS011;45999;48.808;9.182;2023-02-28T08:07:26;7.50;;;5.93;;
146;SDS011;45999;48.808;9.182;2023-02-28T08:09:52;6.20;;;5.30;;
146;SDS011;45999;48.808;9.182;2023-02-28T08:12:18;7.17;;;5.57;;
146;SDS011;45999;48.808;9.182;2023-02-28T08:14:45;6.00;;;5.40;;
146;SDS011;45999;48.808;9.182;2023-02-28T08:17:11;7.37;;;5.37;;
146;SDS011;45999;48.808;9.182;2023-02-28T08:19:38;8.20;;;5.47;;
146;SDS011;45999;48.808;9.182;2023-02-28T08:22:04;6.67;;;5.37;;
146;SDS011;45999;48.808;9.182;2023-02-28T08:24:31;5.97;;;5.23;;
146;SDS011;45999;48.808;9.182;2023-02-28T08:26:58;6.90;;;5.60;;
146;SDS011;45999;48.808;9.182;2023-02-28T08:29:24;6.20;;;5.03;;
146;SDS011;45999;48.808;9.182;2023-02-28T08:31:51;7.07;;;5.50;;
146;SDS011;45999;48.808;9.182;2023-02-28T08:34:17;7.03;;;5.77;;
146;SDS011;45999;48.808;9.182;2023-02-28T08:36:43;8.30;;;6.23;;
146;SDS011;45999;48.808;9.182;2023-02-28T08:39:10;8.23;;;6.00;;
146;SDS011;45999;48.808;9.182;2023-02-28T08:41:37;7.40;;;5.37;;
146;SDS011;45999;48.808;9.182;2023-02-28T08:44:04;7.27;;;6.00;;
146;SDS011;45999;48.808;9.182;2023-02-28T08:46:30;6.70;;;5.43;;
146;SDS011;45999;48.808;9.182;2023-02-28T08:48:57;8.37;;;5.87;;
146;SDS011;45999;48.808;9.182;2023-02-28T08:51:25;7.67;;;6.00;;
146;SDS011;45999;48.808;9.182;2023-02-28T08:53:53;9.73;;;5.83;;
146;SDS011;45999;48.808;9.182;2023-02-28T08:56:20;7.37;;;6.07;;
146;SDS011;45999;48.808;9.182;2023-02-28T08:58:47;9.27;;;5.80;;
146;SDS011;45999;48.808;9.182;2023-02-28T09:01:16;7.33;;;6.07;;
146;SDS011;45999;48.808;9.182;2023-02-28T09:03:47;8.23;;;6.10;;
146;SDS011;45999;48.808;9.182;2023-02-28T09:06:16;9.13;;;6.27;;
146;SDS011;45999;48.808;9.182;2023-02-28T09:08:44;8.90;;;6.40;;
146;SDS011;45999;48.808;9.182;2023-02-28T09:11:11;6.60;;;5.90;;
146;SDS011;45999;48.808;9.182;2023-02-28T09:13:38;7.10;;;6.17;;
146;SDS011;45999;48.808;9.182;2023-02-28T09:16:05;9.33;;;6.53;;
146;SDS011;45999;48.808;9.182;2023-02-28T09:18:34;8.07;;;5.87;;
146;SDS011;45999;48.808;9.182;2023-02-28T09:21:03;7.83;;;5.40;;
146;SDS011;45999;48.808;9.182;2023-02-28T09:23:30;7.17;;;5.60;;
146;SDS011;45999;48.808;9.182;2023-02-28T09:25:57;7.77;;;5.97;;
146;SDS011;45999;48.808;9.182;2023-02-28T09:28:23;8.07;;;5.83;;
146;SDS011;45999;48.808;9.182;2023-02-28T09:30:51;6.87;;;6.17;;
146;SDS011;45999;48.808;9.182;2023-02-28T09:33:20;7.43;;;5.87;;
146;SDS011;45999;48.808;9.182;2023-02-28T09:35:48;8.33;;;5.93;;
146;SDS011;45999;48.808;9.182;2023-02-28T09:38:15;7.23;;;6.13;;
146;SDS011;45999;48.808;9.182;2023-02-28T09:40:47;7.00;;;5.97;;
146;SDS011;45999;48.808;9.182;2023-02-28T09:43:16;9.93;;;6.00;;
146;SDS011;45999;48.808;9.182;2023-02-28T09:45:48;8.47;;;6.77;;
146;SDS011;45999;48.808;9.182;2023-02-28T09:48:24;7.27;;;6.53;;
146;SDS011;45999;48.808;9.182;2023-02-28T09:51:04;7.00;;;6.30;;
146;SDS011;45999;48.808;9.182;2023-02-28T09:53:40;7.33;;;6.37;;
146;SDS011;45999;48.808;9.182;2023-02-28T09:56:11;7.40;;;5.87;;
146;SDS011;45999;48.808;9.182;2023-02-28T09:58:55;8.20;;;6.60;;
146;SDS011;45999;48.808;9.182;2023-02-28T10:01:27;7.20;;;6.23;;
146;SDS011;45999;48.808;9.182;2023-02-28T10:03:57;7.60;;;6.30;;
146;SDS011;45999;48.808;9.182;2023-02-28T10:06:28;8.73;;;6.90;;
146;SDS011;45999;48.808;9.182;2023-02-28T10:11:38;8.67;;;6.33;;
146;SDS011;45999;48.808;9.182;2023-02-28T10:14:16;7.33;;;6.43;;
146;SDS011;45999;48.808;9.182;2023-02-28T10:16:53;8.20;;;6.60;;
146;SDS011;45999;48.808;9.182;2023-02-28T10:21:55;10.27;;;6.90;;
146;SDS011;45999;48.808;9.182;2023-02-28T10:24:29;7.33;;;6.20;;
146;SDS011;45999;48.808;9.182;2023-02-28T10:27:00;7.60;;;6.63;;
146;SDS011;45999;48.808;9.182;2023-02-28T10:29:44;8.87;;;6.63;;
146;SDS011;45999;48.808;9.182;2023-02-28T10:32:14;11.00;;;6.77;;
146;SDS011;45999;48.808;9.182;2023-02-28T10:34:52;8.67;;;6.83;;
146;SDS011;45999;48.808;9.182;2023-02-28T10:37:23;8.70;;;6.57;;
146;SDS011;45999;48.808;9.182;2023-02-28T10:39:49;10.07;;;6.90;;
146;SDS011;45999;48.808;9.182;2023-02-28T10:42:26;8.37;;;6.43;;
146;SDS011;45999;48.808;9.182;2023-02-28T10:47:55;10.17;;;7.07;;
146;SDS011;45999;48.808;9.182;2023-02-28T10:50:33;7.60;;;6.80;;
146;SDS011;45999;48.808;9.182;2023-02-28T10:55:36;10.40;;;6.80;;
146;SDS011;45999;48.808;9.182;2023-02-28T10:58:10;8.40;;;6.83;;
146;SDS011;45999;48.808;9.182;2023-02-28T11:00:47;8.70;;;6.60;;
146;SDS011;45999;48.808;9.182;2023-02-28T11:03:24;8.13;;;6.40;;
146;SDS011;45999;48.808;9.182;2023-02-28T11:05:51;8.30;;;6.23;;
146;SDS011;45999;48.808;9.182;2023-02-28T11:08:17;8.30;;;6.63;;
146;SDS011;45999;48.808;9.182;2023-02-28T11:10:52;8.67;;;6.77;;
146;SDS011;45999;48.808;9.182;2023-02-28T11:13:21;8.37;;;6.60;;
146;SDS011;45999;48.808;9.182;2023-02-28T11:15:55;8.93;;;6.93;;
146;SDS011;45999;48.808;9.182;2023-02-28T11:18:24;7.73;;;6.23;;
146;SDS011;45999;48.808;9.182;2023-02-28T11:20:55;8.03;;;6.50;;
146;SDS011;45999;48.808;9.182;2023-02-28T11:23:25;8.13;;;6.70;;
146;SDS011;45999;48.808;9.182;2023-02-28T11:25:56;9.07;;;7.20;;
146;SDS011;45999;48.808;9.182;2023-02-28T11:33:53;7.17;;;6.47;;
146;SDS011;45999;48.808;9.182;2023-02-28T11:36:25;7.23;;;6.03;;
146;SDS011;45999;48.808;9.182;2023-02-28T11:38:58;8.80;;;6.90;;
146;SDS011;45999;48.808;9.182;2023-02-28T11:50:01;8.83;;;7.10;;
146;SDS011;45999;48.808;9.182;2023-02-28T11:55:21;9.03;;;6.67;;
146;SDS011;45999;48.808;9.182;2023-02-28T12:06:52;10.30;;;6.73;;
146;SDS011;45999;48.808;9.182;2023-02-28T12:12:41;7.57;;;6.77;;
146;SDS011;45999;48.808;9.182;2023-02-28T12:18:03;8.57;;;6.80;;
146;SDS011;45999;48.808;9.182;2023-02-28T12:20:47;9.70;;;6.97;;
146;SDS011;45999;48.808;9.182;2023-02-28T12:28:28;10.03;;;7.00;;
146;SDS011;45999;48.808;9.182;2023-02-28T12:31:01;7.37;;;6.60;;
146;SDS011;45999;48.808;9.182;2023-02-28T12:33:35;8.43;;;6.77;;
146;SDS011;45999;48.808;9.182;2023-02-28T12:36:10;8.67;;;6.60;;
146;SDS011;45999;48.808;9.182;2023-02-28T12:38:47;8.13;;;7.32;;
146;SDS011;45999;48.808;9.182;2023-02-28T12:44:32;7.73;;;6.80;;
146;SDS011;45999;48.808;9.182;2023-02-28T12:47:04;8.37;;;6.37;;
146;SDS011;45999;48.808;9.182;2023-02-28T12:49:39;6.57;;;5.93;;
146;SDS011;45999;48.808;9.182;2023-02-28T12:52:29;7.53;;;6.73;;
146;SDS011;45999;48.808;9.182;2023-02-28T12:57:58;7.03;;;5.70;;
146;SDS011;45999;48.808;9.182;2023-02-28T13:00:35;10.40;;;6.87;;
146;SDS011;45999;48.808;9.182;2023-02-28T13:10:55;7.93;;;5.90;;
146;SDS011;45999;48.808;9.182;2023-02-28T13:13:23;7.07;;;6.37;;
146;SDS011;45999;48.808;9.182;2023-02-28T13:16:05;6.83;;;6.13;;
146;SDS011;45999;48.808;9.182;2023-02-28T13:21:09;7.00;;;5.87;;
146;SDS011;45999;48.808;9.182;2023-02-28T13:26:21;8.97;;;6.03;;
146;SDS011;45999;48.808;9.182;2023-02-28T13:31:14;8.47;;;6.80;;
146;SDS011;45999;48.808;9.182;2023-02-28T13:38:43;6.83;;;6.13;;
146;SDS011;45999;48.808;9.182;2023-02-28T13:46:29;7.73;;;6.73;;
146;SDS011;45999;48.808;9.182;2023-02-28T13:48:56;7.93;;;6.73;;
146;SDS011;45999;48.808;9.182;2023-02-28T13:52:06;7.03;;;6.30;;
146;SDS011;45999;48.808;9.182;2023-02-28T13:54:19;6.87;;;6.13;;
146;SDS011;45999;48.808;9.182;2023-02-28T13:57:00;7.20;;;6.17;;
146;SDS011;45999;48.808;9.182;2023-02-28T13:59:36;8.87;;;6.13;;
146;SDS011;45999;48.808;9.182;2023-02-28T14:02:26;6.80;;;6.20;;
146;SDS011;45999;48.808;9.182;2023-02-28T14:05:16;7.77;;;6.23;;
146;SDS011;45999;48.808;9.182;2023-02-28T14:07:50;6.90;;;5.77;;
146;SDS011;45999;48.808;9.182;2023-02-28T14:10:24;7.23;;;6.13;;
146;SDS011;45999;48.808;9.182;2023-02-28T14:15:34;8.73;;;6.57;;
146;SDS011;45999;48.808;9.182;2023-02-28T14:20:44;7.37;;;6.60;;
146;SDS011;45999;48.808;9.182;2023-02-28T14:23:22;7.50;;;6.70;;
146;SDS011;45999;48.808;9.182;2023-02-28T14:28:39;7.03;;;6.33;;
146;SDS011;45999;48.808;9.182;2023-02-28T14:31:09;6.87;;;5.93;;
146;SDS011;45999;48.808;9.182;2023-02-28T14:36:44;7.97;;;6.70;;
146;SDS011;45999;48.808;9.182;2023-02-28T14:39:14;10.97;;;6.30;;
146;SDS011;45999;48.808;9.182;2023-02-28T14:41:45;7.30;;;6.33;;
146;SDS011;45999;48.808;9.182;2023-02-28T14:44:27;7.13;;;6.43;;
146;SDS011;45999;48.808;9.182;2023-02-28T14:47:02;9.13;;;6.97;;
146;SDS011;45999;48.808;9.182;2023-02-28T14:49:37;6.70;;;6.00;;
146;SDS011;45999;48.808;9.182;2023-02-28T14:52:15;7.17;;;6.23;;
146;SDS011;45999;48.808;9.182;2023-02-28T14:54:45;7.17;;;6.27;;
146;SDS011;45999;48.808;9.182;2023-02-28T14:57:27;6.97;;;6.23;;
146;SDS011;45999;48.808;9.182;2023-02-28T14:59:59;7.40;;;6.57;;
146;SDS011;45999;48.808;9.182;2023-02-28T15:02:40;6.63;;;5.93;;
146;SDS011;45999;48.808;9.182;2023-02-28T15:07:41;6.67;;;6.03;;
146;SDS011;45999;48.808;9.182;2023-02-28T15:10:18;6.60;;;6.00;;
146;SDS011;45999;48.808;9.182;2023-02-28T15:13:10;8.13;;;6.77;;
146;SDS011;45999;48.808;9.182;2023-02-28T15:19:02;7.97;;;7.13;;
146;SDS011;45999;48.808;9.182;2023-02-28T15:21:13;7.97;;;6.73;;
146;SDS011;45999;48.808;9.182;2023-02-28T15:23:42;10.80;;;6.80;;
146;SDS011;45999;48.808;9.182;2023-02-28T15:26:14;7.93;;;6.70;;
146;SDS011;45999;48.808;9.182;2023-02-28T15:28:43;7.43;;;6.47;;
146;SDS011;45999;48.808;9.182;2023-02-28T15:31:27;6.30;;;5.70;;
146;SDS011;45999;48.808;9.182;2023-02-28T15:33:56;8.03;;;6.67;;
146;SDS011;45999;48.808;9.182;2023-02-28T15:36:25;7.93;;;7.13;;
146;SDS011;45999;48.808;9.182;2023-02-28T15:38:56;7.70;;;6.97;;
146;SDS011;45999;48.808;9.182;2023-02-28T15:41:24;8.23;;;6.53;;
146;SDS011;45999;48.808;9.182;2023-02-28T15:50:06;7.00;;;6.30;;
146;SDS011;45999;48.808;9.182;2023-02-28T15:52:33;7.87;;;6.97;;
146;SDS011;45999;48.808;9.182;2023-02-28T15:55:16;6.07;;;5.47;;
146;SDS011;45999;48.808;9.182;2023-02-28T15:57:47;7.50;;;6.70;;
146;SDS011;45999;48.808;9.182;2023-02-28T16:00:18;7.70;;;6.83;;
146;SDS011;45999;48.808;9.182;2023-02-28T16:02:47;10.30;;;6.50;;
146;SDS011;45999;48.808;9.182;2023-02-28T16:07:41;7.73;;;6.20;;
146;SDS011;45999;48.808;9.182;2023-02-28T16:10:10;8.53;;;6.97;;
146;SDS011;45999;48.808;9.182;2023-02-28T16:12:39;7.97;;;6.70;;
146;SDS011;45999;48.808;9.182;2023-02-28T16:15:07;8.20;;;7.27;;
146;SDS011;45999;48.808;9.182;2023-02-28T16:17:40;8.50;;;7.40;;
146;SDS011;45999;48.808;9.182;2023-02-28T16:20:40;7.73;;;6.67;;
146;SDS011;45999;48.808;9.182;2023-02-28T16:22:59;9.23;;;6.93;;
146;SDS011;45999;48.808;9.182;2023-02-28T16:25:33;8.10;;;7.20;;
146;SDS011;45999;48.808;9.182;2023-02-28T16:28:01;7.93;;;6.97;;
146;SDS011;45999;48.808;9.182;2023-02-28T16:30:30;8.20;;;6.63;;
146;SDS011;45999;48.808;9.182;2023-02-28T16:32:57;7.77;;;6.77;;
146;SDS011;45999;48.808;9.182;2023-02-28T16:35:24;8.50;;;7.03;;
146;SDS011;45999;48.808;9.182;2023-02-28T16:37:51;8.10;;;7.33;;
146;SDS011;45999;48.808;9.182;2023-02-28T16:40:20;8.43;;;6.73;;
146;SDS011;45999;48.808;9.182;2023-02-28T16:42:53;9.80;;;7.47;;
146;SDS011;45999;48.808;9.182;2023-02-28T16:45:25;9.30;;;7.27;;
146;SDS011;45999;48.808;9.182;2023-02-28T16:47:53;7.97;;;7.03;;
146;SDS011;45999;48.808;9.182;2023-02-28T16:50:21;7.97;;;7.17;;
146;SDS011;45999;48.808;9.182;2023-02-28T16:52:49;7.67;;;6.87;;
146;SDS011;45999;48.808;9.182;2023-02-28T16:55:17;9.43;;;7.67;;
146;SDS011;45999;48.808;9.182;2023-02-28T16:57:44;8.30;;;7.00;;
146;SDS011;45999;48.808;9.182;2023-02-28T17:00:16;8.63;;;7.20;;
146;SDS011;45999;48.808;9.182;2023-02-28T17:02:43;9.57;;;8.10;;
146;SDS011;45999;48.808;9.182;2023-02-28T17:05:12;8.40;;;7.27;;
146;SDS011;45999;48.808;9.182;2023-02-28T17:07:40;9.43;;;7.40;;
146;SDS011;45999;48.808;9.182;2023-02-28T17:10:15;9.07;;;7.40;;
146;SDS011;45999;48.808;9.182;2023-02-28T17:12:44;8.60;;;7.67;;
146;SDS011;45999;48.808;9.182;2023-02-28T17:15:11;8.87;;;7.57;;
146;SDS011;45999;48.808;9.182;2023-02-28T17:17:38;9.70;;;7.87;;
146;SDS011;45999;48.808;9.182;2023-02-28T17:20:06;9.30;;;7.50;;
146;SDS011;45999;48.808;9.182;2023-02-28T17:22:37;10.07;;;7.20;;
146;SDS011;45999;48.808;9.182;2023-02-28T17:25:03;8.73;;;7.20;;
146;SDS011;45999;48.808;9.182;2023-02-28T17:27:30;11.07;;;7.90;;
146;SDS011;45999;48.808;9.182;2023-02-28T17:29:57;8.10;;;7.30;;
146;SDS011;45999;48.808;9.182;2023-02-28T17:32:23;8.90;;;7.73;;
146;SDS011;45999;48.808;9.182;2023-02-28T17:34:50;8.93;;;8.00;;
146;SDS011;45999;48.808;9.182;2023-02-28T17:37:17;10.17;;;8.03;;
146;SDS011;45999;48.808;9.182;2023-02-28T17:39:43;9.77;;;7.87;;
146;SDS011;45999;48.808;9.182;2023-02-28T17:42:09;10.50;;;9.07;;
146;SDS011;45999;48.808;9.182;2023-02-28T17:44:37;11.27;;;8.07;;